Time;durP1;ratioP1;P1;durP2;ratioP2;P2;SDS_P1;SDS_P2;PMS_P1;PMS_P2;Temp;Humidity;BMP_temperature;BMP_pressure;BME280_temperature;BME280_humidity;BME280_pressure;Samples;Min_cycle;Max_cycle;Signal;HPM_P1;HPM_P2
2022/10/07 00:02:06;;;;;;;11.70;3.75;;;;;;;;;;5045977;28;20048;-72
2022/10/07 00:04:33;;;;;;;17.08;3.97;;;;;;;;;;5050446;28;20053;-72
2022/10/07 00:06:59;;;;;;;12.27;3.55;;;;;;;;;;5049307;28;20052;-72
2022/10/07 00:09:25;;;;;;;13.40;4.10;;;;;;;;;;5051910;28;20053;-73
2022/10/07 00:11:51;;;;;;;10.63;3.45;;;;;;;;;;5050790;28;20049;-72
2022/10/07 00:14:17;;;;;;;17.05;4.38;;;;;;;;;;5050028;28;20045;-72
2022/10/07 00:16:43;;;;;;;15.38;4.20;;;;;;;;;;5031940;28;20049;-72
2022/10/07 00:19:12;;;;;;;10.85;3.28;;;;;;;;;;5049918;28;20041;-72
2022/10/07 00:21:39;;;;;;;11.68;4.07;;;;;;;;;;5050204;28;20045;-72
2022/10/07 00:24:06;;;;;;;14.05;4.10;;;;;;;;;;5050631;28;20059;-73
2022/10/07 00:26:33;;;;;;;11.43;4.15;;;;;;;;;;5048899;28;20040;-72
2022/10/07 00:29:00;;;;;;;14.02;3.92;;;;;;;;;;5051644;28;20052;-72
2022/10/07 00:31:31;;;;;;;14.75;4.68;;;;;;;;;;5032393;28;20037;-72
2022/10/07 00:33:57;;;;;;;14.88;4.30;;;;;;;;;;5033034;28;20040;-72
2022/10/07 00:36:28;;;;;;;12.25;4.30;;;;;;;;;;5065282;28;20601;-72
2022/10/07 00:38:58;;;;;;;12.32;4.18;;;;;;;;;;5049517;28;20037;-72
2022/10/07 00:41:31;;;;;;;14.18;4.70;;;;;;;;;;5050251;28;20037;-72
2022/10/07 00:43:58;;;;;;;15.38;4.70;;;;;;;;;;5051221;28;20449;-73
2022/10/07 00:46:24;;;;;;;12.27;4.60;;;;;;;;;;5050877;28;20049;-72
2022/10/07 00:48:50;;;;;;;14.80;4.30;;;;;;;;;;5051546;28;20052;-72
2022/10/07 00:51:17;;;;;;;12.98;4.07;;;;;;;;;;5050981;28;20041;-72
2022/10/07 00:53:45;;;;;;;11.32;3.80;;;;;;;;;;5051267;28;20132;-72
2022/10/07 00:56:12;;;;;;;12.27;4.15;;;;;;;;;;5051160;28;20049;-72
2022/10/07 00:58:39;;;;;;;12.45;4.18;;;;;;;;;;5053835;28;20037;-72
2022/10/07 01:01:05;;;;;;;14.68;4.57;;;;;;;;;;5053681;28;20048;-73
2022/10/07 01:03:33;;;;;;;17.73;4.63;;;;;;;;;;5067203;28;20053;-72
2022/10/07 01:05:59;;;;;;;13.43;4.47;;;;;;;;;;5054988;28;20044;-72
2022/10/07 01:08:25;;;;;;;11.48;4.30;;;;;;;;;;5054839;28;20069;-72
2022/10/07 01:11:12;;;;;;;11.18;3.90;;;;;;;;;;5053995;28;20103;-72
2022/10/07 01:13:59;;;;;;;11.25;4.20;;;;;;;;;;5054732;28;20120;-73
2022/10/07 01:16:25;;;;;;;13.23;4.13;;;;;;;;;;5055706;28;20045;-73
2022/10/07 01:18:59;;;;;;;15.30;4.13;;;;;;;;;;5054208;28;20049;-72
2022/10/07 01:21:33;;;;;;;15.23;4.10;;;;;;;;;;5052302;28;20057;-72
2022/10/07 01:24:22;;;;;;;16.30;4.50;;;;;;;;;;5070134;28;20044;-73
2022/10/07 01:27:00;;;;;;;12.65;4.30;;;;;;;;;;5054196;28;20103;-72
2022/10/07 01:29:37;;;;;;;12.52;4.30;;;;;;;;;;5053013;28;20045;-72
2022/10/07 01:32:08;;;;;;;12.00;4.07;;;;;;;;;;5053074;28;20415;-73
2022/10/07 01:34:35;;;;;;;12.00;4.80;;;;;;;;;;5053364;28;20045;-72
2022/10/07 01:37:03;;;;;;;16.42;4.57;;;;;;;;;;5052938;28;20467;-73
2022/10/07 01:39:31;;;;;;;12.02;4.55;;;;;;;;;;5051849;28;20045;-73
2022/10/07 01:41:58;;;;;;;13.30;4.75;;;;;;;;;;5052285;28;20071;-72
2022/10/07 01:44:27;;;;;;;13.25;4.80;;;;;;;;;;5053858;28;20139;-73
2022/10/07 01:46:53;;;;;;;14.93;4.63;;;;;;;;;;5053329;28;20045;-72
2022/10/07 01:49:19;;;;;;;14.90;4.57;;;;;;;;;;5051849;28;20045;-72
2022/10/07 01:51:51;;;;;;;10.57;5.05;;;;;;;;;;5055114;28;20049;-73
2022/10/07 01:54:30;;;;;;;14.10;5.13;;;;;;;;;;5033259;28;20496;-73
2022/10/07 01:57:02;;;;;;;14.02;4.80;;;;;;;;;;5051167;28;20518;-72
2022/10/07 01:59:48;;;;;;;11.93;4.40;;;;;;;;;;5053375;28;20040;-72
2022/10/07 02:02:20;;;;;;;15.27;5.10;;;;;;;;;;5053213;28;20110;-73
2022/10/07 02:04:56;;;;;;;19.13;4.85;;;;;;;;;;5053607;28;20216;-72
2022/10/07 02:07:40;;;;;;;9.95;4.35;;;;;;;;;;5049228;28;20077;-72
2022/10/07 02:10:09;;;;;;;16.52;5.03;;;;;;;;;;5050187;28;20052;-73
2022/10/07 02:12:35;;;;;;;13.82;4.63;;;;;;;;;;5052848;28;20086;-72
2022/10/07 02:15:07;;;;;;;10.75;4.68;;;;;;;;;;5053327;28;20398;-73
2022/10/07 02:17:36;;;;;;;10.90;4.55;;;;;;;;;;5052804;28;20407;-72
2022/10/07 02:20:02;;;;;;;11.95;4.35;;;;;;;;;;5053478;28;20550;-72
2022/10/07 02:22:29;;;;;;;14.75;4.75;;;;;;;;;;5052654;28;20087;-73
2022/10/07 02:24:58;;;;;;;17.90;4.88;;;;;;;;;;5053403;28;20558;-72
2022/10/07 02:27:30;;;;;;;14.35;4.45;;;;;;;;;;5053725;28;20048;-72
2022/10/07 02:29:58;;;;;;;14.30;4.95;;;;;;;;;;5053205;28;20045;-72
2022/10/07 02:32:26;;;;;;;14.75;4.55;;;;;;;;;;5053753;28;20560;-73
2022/10/07 02:34:54;;;;;;;15.55;4.85;;;;;;;;;;5052879;28;20090;-72
2022/10/07 02:37:24;;;;;;;14.32;4.75;;;;;;;;;;5052687;28;20523;-72
2022/10/07 02:39:51;;;;;;;11.70;4.37;;;;;;;;;;5051907;28;20095;-72
2022/10/07 02:42:37;;;;;;;13.52;4.40;;;;;;;;;;5052329;28;20870;-72
2022/10/07 02:45:09;;;;;;;18.27;5.18;;;;;;;;;;5050108;28;20056;-73
2022/10/07 02:47:41;;;;;;;16.98;5.03;;;;;;;;;;5048595;28;20072;-72
2022/10/07 02:50:10;;;;;;;19.73;5.45;;;;;;;;;;5018060;28;20076;-72
2022/10/07 02:52:37;;;;;;;12.05;4.60;;;;;;;;;;5051623;28;20469;-72
2022/10/07 02:55:05;;;;;;;16.60;5.47;;;;;;;;;;5052517;28;20394;-72
2022/10/07 02:57:34;;;;;;;18.27;4.35;;;;;;;;;;5051940;28;20084;-72
2022/10/07 03:00:01;;;;;;;12.35;4.93;;;;;;;;;;5051362;28;20045;-72
2022/10/07 03:02:31;;;;;;;14.80;5.00;;;;;;;;;;5035512;28;20070;-72
2022/10/07 03:04:57;;;;;;;15.35;4.38;;;;;;;;;;5052716;28;20056;-73
2022/10/07 03:07:24;;;;;;;14.35;5.28;;;;;;;;;;5052542;28;20099;-72
2022/10/07 03:09:51;;;;;;;14.20;4.90;;;;;;;;;;5050430;28;20049;-72
2022/10/07 03:12:17;;;;;;;14.35;4.60;;;;;;;;;;5034544;28;20403;-72
2022/10/07 03:14:43;;;;;;;19.25;5.00;;;;;;;;;;5052063;28;20036;-73
2022/10/07 03:17:10;;;;;;;15.25;5.10;;;;;;;;;;5053566;28;20491;-73
2022/10/07 03:19:36;;;;;;;15.27;4.78;;;;;;;;;;5051428;28;20047;-73
2022/10/07 03:22:03;;;;;;;17.38;4.40;;;;;;;;;;5051945;28;20052;-72
2022/10/07 03:24:30;;;;;;;15.05;4.95;;;;;;;;;;5049273;28;20103;-72
2022/10/07 03:26:56;;;;;;;14.75;4.55;;;;;;;;;;5051392;28;20055;-72
2022/10/07 03:29:24;;;;;;;12.52;4.30;;;;;;;;;;5049872;28;20041;-72
2022/10/07 03:31:52;;;;;;;19.30;5.43;;;;;;;;;;5052618;28;20605;-73
2022/10/07 03:34:18;;;;;;;16.48;4.80;;;;;;;;;;5052187;28;20132;-72
2022/10/07 03:36:45;;;;;;;20.08;5.00;;;;;;;;;;5052592;28;20053;-72
2022/10/07 03:39:11;;;;;;;16.30;4.40;;;;;;;;;;5051018;28;20068;-72
2022/10/07 03:41:37;;;;;;;15.48;4.47;;;;;;;;;;5048608;28;20120;-73
2022/10/07 03:44:04;;;;;;;14.65;4.90;;;;;;;;;;5050768;28;20045;-73
2022/10/07 03:46:30;;;;;;;18.55;4.90;;;;;;;;;;5051063;28;20077;-72
2022/10/07 03:48:57;;;;;;;24.02;5.32;;;;;;;;;;5051750;28;20083;-73
2022/10/07 03:51:23;;;;;;;16.83;4.82;;;;;;;;;;5053250;28;20041;-73
2022/10/07 03:53:53;;;;;;;17.10;5.10;;;;;;;;;;5051712;28;20041;-72
2022/10/07 03:56:19;;;;;;;16.67;5.10;;;;;;;;;;5051219;28;20045;-72
2022/10/07 03:58:45;;;;;;;20.90;5.30;;;;;;;;;;5051777;28;20499;-72
2022/10/07 04:01:13;;;;;;;16.77;4.93;;;;;;;;;;5044731;28;20041;-72
2022/10/07 04:03:40;;;;;;;17.02;5.40;;;;;;;;;;5050699;28;20052;-73
2022/10/07 04:06:06;;;;;;;15.50;4.57;;;;;;;;;;5049530;28;21189;-72
2022/10/07 04:08:33;;;;;;;18.17;4.88;;;;;;;;;;5054901;28;20047;-73
2022/10/07 04:10:59;;;;;;;20.30;5.20;;;;;;;;;;5072758;28;20166;-73
2022/10/07 04:13:25;;;;;;;17.33;5.15;;;;;;;;;;5067865;28;20087;-73
2022/10/07 04:15:52;;;;;;;17.88;5.30;;;;;;;;;;5050968;28;20037;-72
2022/10/07 04:18:18;;;;;;;16.58;5.45;;;;;;;;;;5049997;28;20048;-73
2022/10/07 04:20:44;;;;;;;19.48;5.35;;;;;;;;;;5051155;28;20049;-72
2022/10/07 04:23:10;;;;;;;22.60;5.38;;;;;;;;;;5050875;28;20491;-72
2022/10/07 04:25:37;;;;;;;22.58;6.13;;;;;;;;;;5055070;28;20055;-72
2022/10/07 04:28:07;;;;;;;17.20;5.32;;;;;;;;;;5070132;28;20051;-72
2022/10/07 04:30:38;;;;;;;19.13;5.63;;;;;;;;;;5042810;28;20040;-72
2022/10/07 04:33:04;;;;;;;17.08;5.38;;;;;;;;;;5049592;28;20221;-72
2022/10/07 04:35:30;;;;;;;20.33;5.38;;;;;;;;;;5054591;28;20048;-72
2022/10/07 04:37:56;;;;;;;15.90;5.32;;;;;;;;;;5053275;28;20475;-72
2022/10/07 04:40:23;;;;;;;21.13;5.72;;;;;;;;;;5056293;28;20049;-72
2022/10/07 04:45:35;;;;;;;16.73;4.85;;;;;;;;;;5047968;28;20128;-72
2022/10/07 04:48:02;;;;;;;18.85;5.97;;;;;;;;;;5054429;28;20042;-72
2022/10/07 04:50:29;;;;;;;21.35;5.70;;;;;;;;;;5025776;28;20038;-72
2022/10/07 04:52:55;;;;;;;22.23;5.78;;;;;;;;;;5049012;28;20045;-72
2022/10/07 04:55:21;;;;;;;19.52;5.65;;;;;;;;;;5051274;28;20041;-72
2022/10/07 04:57:48;;;;;;;23.70;6.53;;;;;;;;;;5054954;28;20084;-71
2022/10/07 05:00:14;;;;;;;17.85;5.35;;;;;;;;;;5054393;28;20049;-72
2022/10/07 05:02:40;;;;;;;23.02;5.93;;;;;;;;;;5036278;28;20045;-71
2022/10/07 05:05:08;;;;;;;18.13;5.97;;;;;;;;;;5054196;28;20407;-72
2022/10/07 05:07:34;;;;;;;18.45;5.45;;;;;;;;;;5053104;28;20075;-72
2022/10/07 05:10:00;;;;;;;21.58;5.30;;;;;;;;;;5047165;28;20049;-72
2022/10/07 05:12:27;;;;;;;21.48;5.72;;;;;;;;;;5055594;28;20097;-72
2022/10/07 05:14:53;;;;;;;19.88;5.50;;;;;;;;;;5054469;28;20045;-73
2022/10/07 05:17:19;;;;;;;20.42;5.47;;;;;;;;;;5053604;28;20036;-72
2022/10/07 05:19:45;;;;;;;17.55;6.03;;;;;;;;;;5054445;28;20045;-74
2022/10/07 05:22:11;;;;;;;26.83;5.70;;;;;;;;;;5054430;28;20045;-73
2022/10/07 05:24:37;;;;;;;17.10;5.90;;;;;;;;;;5054615;28;20052;-73
2022/10/07 05:27:03;;;;;;;21.90;5.68;;;;;;;;;;5054198;28;20060;-73
2022/10/07 05:29:29;;;;;;;16.75;5.13;;;;;;;;;;5047629;28;20051;-73
2022/10/07 05:31:55;;;;;;;23.58;6.35;;;;;;;;;;5052517;28;20052;-73
2022/10/07 05:34:22;;;;;;;23.27;5.72;;;;;;;;;;5051527;28;20116;-73
2022/10/07 05:36:48;;;;;;;23.33;5.70;;;;;;;;;;5054338;28;20399;-73
2022/10/07 05:39:14;;;;;;;22.08;6.22;;;;;;;;;;5050888;28;20484;-73
2022/10/07 05:41:40;;;;;;;27.67;6.70;;;;;;;;;;5052775;28;20503;-73
2022/10/07 05:44:06;;;;;;;22.55;5.70;;;;;;;;;;5049317;28;20045;-73
2022/10/07 05:46:32;;;;;;;21.23;5.70;;;;;;;;;;5051343;28;20051;-73
2022/10/07 05:48:59;;;;;;;19.92;4.93;;;;;;;;;;5032345;28;20037;-72
2022/10/07 05:51:25;;;;;;;20.98;5.50;;;;;;;;;;5016062;28;20075;-73
2022/10/07 05:53:55;;;;;;;21.23;5.63;;;;;;;;;;5030701;28;20041;-72
2022/10/07 05:56:21;;;;;;;23.40;6.63;;;;;;;;;;5040101;28;20099;-72
2022/10/07 05:58:48;;;;;;;23.38;6.68;;;;;;;;;;5035175;28;20052;-72
2022/10/07 06:01:15;;;;;;;24.15;6.55;;;;;;;;;;5050454;28;20102;-72
2022/10/07 06:03:42;;;;;;;25.13;5.60;;;;;;;;;;5049365;28;20498;-72
2022/10/07 06:06:08;;;;;;;19.45;5.72;;;;;;;;;;5049398;28;20486;-73
2022/10/07 06:08:34;;;;;;;20.88;6.72;;;;;;;;;;5053201;28;20048;-72
2022/10/07 06:13:50;;;;;;;20.20;5.78;;;;;;;;;;5059232;28;20053;-72
2022/10/07 06:16:16;;;;;;;23.83;6.72;;;;;;;;;;5055445;28;20049;-72
2022/10/07 06:18:42;;;;;;;22.80;5.57;;;;;;;;;;5073433;28;20050;-71
2022/10/07 06:21:11;;;;;;;20.50;5.72;;;;;;;;;;5041705;28;20041;-72
2022/10/07 06:23:37;;;;;;;24.00;6.28;;;;;;;;;;5017013;28;20487;-72
2022/10/07 06:26:05;;;;;;;23.95;6.28;;;;;;;;;;5033571;28;20069;-72
2022/10/07 06:28:32;;;;;;;14.20;5.57;;;;;;;;;;5042415;28;20124;-73
2022/10/07 06:30:58;;;;;;;23.48;6.03;;;;;;;;;;5060480;28;20041;-72
2022/10/07 06:33:24;;;;;;;19.27;5.47;;;;;;;;;;5072776;28;20052;-72
2022/10/07 06:35:50;;;;;;;20.30;5.95;;;;;;;;;;5073120;28;20151;-72
2022/10/07 06:38:16;;;;;;;19.70;5.47;;;;;;;;;;5042698;28;20041;-73
2022/10/07 06:40:42;;;;;;;24.20;6.32;;;;;;;;;;5033278;28;20553;-73
2022/10/07 06:43:08;;;;;;;25.88;6.05;;;;;;;;;;5032975;28;20081;-73
2022/10/07 06:45:34;;;;;;;24.33;6.40;;;;;;;;;;5033220;28;20079;-73
2022/10/07 06:48:00;;;;;;;18.13;5.70;;;;;;;;;;5048457;28;20048;-73
2022/10/07 06:50:26;;;;;;;17.90;5.13;;;;;;;;;;5065646;28;20122;-73
2022/10/07 06:52:52;;;;;;;28.17;5.80;;;;;;;;;;5042444;28;20049;-73
2022/10/07 06:55:18;;;;;;;19.95;5.43;;;;;;;;;;5052313;28;20087;-73
2022/10/07 06:57:44;;;;;;;28.15;5.78;;;;;;;;;;5052296;28;20138;-73
2022/10/07 07:00:10;;;;;;;18.27;5.38;;;;;;;;;;5036363;28;20125;-73
2022/10/07 07:02:36;;;;;;;23.33;5.70;;;;;;;;;;5051919;28;20445;-73
2022/10/07 07:05:07;;;;;;;25.48;5.50;;;;;;;;;;5052000;28;20051;-73
2022/10/07 07:07:33;;;;;;;21.37;4.87;;;;;;;;;;5052071;28;20049;-73
2022/10/07 07:09:59;;;;;;;22.85;5.65;;;;;;;;;;5050692;28;20295;-73
2022/10/07 07:12:25;;;;;;;20.75;4.32;;;;;;;;;;5050703;28;20094;-71
2022/10/07 07:14:51;;;;;;;22.98;5.30;;;;;;;;;;5052184;28;20049;-70
2022/10/07 07:17:17;;;;;;;14.75;4.03;;;;;;;;;;5052310;28;20048;-71
2022/10/07 07:19:44;;;;;;;18.63;4.00;;;;;;;;;;5052077;28;20052;-72
2022/10/07 07:22:10;;;;;;;17.38;4.82;;;;;;;;;;5061473;28;20041;-72
2022/10/07 07:24:36;;;;;;;18.27;4.65;;;;;;;;;;5052301;28;20487;-72
2022/10/07 07:27:02;;;;;;;15.73;4.18;;;;;;;;;;5047543;28;20099;-72
2022/10/07 07:29:28;;;;;;;17.92;4.50;;;;;;;;;;5032109;28;20046;-72
2022/10/07 07:31:54;;;;;;;19.08;4.40;;;;;;;;;;5031775;28;20057;-72
2022/10/07 07:34:20;;;;;;;16.13;3.65;;;;;;;;;;5031859;28;20407;-72
2022/10/07 07:36:48;;;;;;;16.92;3.90;;;;;;;;;;5032285;28;20060;-72
2022/10/07 07:39:16;;;;;;;15.10;3.85;;;;;;;;;;5041394;28;20480;-72
2022/10/07 07:41:45;;;;;;;16.45;3.83;;;;;;;;;;5050877;28;20106;-72
2022/10/07 07:44:12;;;;;;;16.45;4.07;;;;;;;;;;5034010;28;20533;-72
2022/10/07 07:46:40;;;;;;;19.23;4.30;;;;;;;;;;5033928;28;20075;-72
2022/10/07 07:49:06;;;;;;;21.50;4.53;;;;;;;;;;5051423;28;20136;-71
2022/10/07 07:51:32;;;;;;;18.73;4.20;;;;;;;;;;5051787;28;20075;-70
2022/10/07 07:53:58;;;;;;;15.25;3.72;;;;;;;;;;5051036;28;20120;-73
2022/10/07 07:56:27;;;;;;;17.05;4.25;;;;;;;;;;5052181;28;20052;-72
2022/10/07 07:58:53;;;;;;;14.30;3.38;;;;;;;;;;5015503;28;20091;-73
2022/10/07 08:01:20;;;;;;;15.73;3.70;;;;;;;;;;5031422;28;20081;-72
2022/10/07 08:03:47;;;;;;;16.25;3.65;;;;;;;;;;5031929;28;20041;-72
2022/10/07 08:06:14;;;;;;;14.48;3.42;;;;;;;;;;5047206;28;20480;-72
2022/10/07 08:08:42;;;;;;;15.57;3.63;;;;;;;;;;5055131;28;20044;-72
2022/10/07 08:11:08;;;;;;;13.50;3.67;;;;;;;;;;5055690;28;20060;-71
2022/10/07 08:13:35;;;;;;;17.50;3.33;;;;;;;;;;5055551;28;20045;-72
2022/10/07 08:16:03;;;;;;;16.25;3.90;;;;;;;;;;5054838;28;20048;-71
2022/10/07 08:18:30;;;;;;;16.23;4.00;;;;;;;;;;5037574;28;20049;-71
2022/10/07 08:21:00;;;;;;;16.75;3.72;;;;;;;;;;5055031;28;20048;-71
2022/10/07 08:23:29;;;;;;;17.65;3.70;;;;;;;;;;5054921;28;20060;-71
2022/10/07 08:25:55;;;;;;;16.88;3.50;;;;;;;;;;5055411;28;20175;-71
2022/10/07 08:28:22;;;;;;;20.55;4.05;;;;;;;;;;5055367;28;20049;-70
2022/10/07 08:30:49;;;;;;;19.65;3.78;;;;;;;;;;5069330;28;20051;-71
2022/10/07 08:33:16;;;;;;;13.10;3.55;;;;;;;;;;5075374;28;20464;-71
2022/10/07 08:35:42;;;;;;;15.57;3.90;;;;;;;;;;5075198;28;20054;-72
2022/10/07 08:38:08;;;;;;;18.15;3.65;;;;;;;;;;5067716;28;20554;-71
2022/10/07 08:40:35;;;;;;;18.38;3.65;;;;;;;;;;5054626;28;20083;-72
2022/10/07 08:43:02;;;;;;;16.02;3.30;;;;;;;;;;5035427;28;20060;-71
2022/10/07 08:45:33;;;;;;;16.67;3.67;;;;;;;;;;5055121;28;20071;-72
2022/10/07 08:48:06;;;;;;;12.15;2.90;;;;;;;;;;5070591;28;20128;-71
2022/10/07 08:50:38;;;;;;;15.15;3.08;;;;;;;;;;5075001;28;20044;-71
2022/10/07 08:53:07;;;;;;;13.65;3.45;;;;;;;;;;5070784;28;20057;-72
2022/10/07 08:55:39;;;;;;;16.58;3.90;;;;;;;;;;5054540;28;20384;-71
2022/10/07 08:58:08;;;;;;;18.05;4.07;;;;;;;;;;5037224;28;20059;-72
2022/10/07 09:00:41;;;;;;;17.02;3.53;;;;;;;;;;5054773;28;20544;-71
2022/10/07 09:03:30;;;;;;;18.55;3.85;;;;;;;;;;5037470;28;20573;-71
2022/10/07 09:05:58;;;;;;;18.38;3.53;;;;;;;;;;5036761;28;20505;-71
2022/10/07 09:08:27;;;;;;;19.45;3.22;;;;;;;;;;5035608;28;20139;-71
2022/10/07 09:10:54;;;;;;;16.27;3.63;;;;;;;;;;5054586;28;20049;-72
2022/10/07 09:13:23;;;;;;;19.65;3.33;;;;;;;;;;5053779;28;20406;-71
2022/10/07 09:15:56;;;;;;;21.35;3.88;;;;;;;;;;5054432;28;20053;-72
2022/10/07 09:18:41;;;;;;;17.02;3.97;;;;;;;;;;5053920;28;20189;-71
2022/10/07 09:21:12;;;;;;;16.73;3.20;;;;;;;;;;5053568;28;20461;-70
2022/10/07 09:23:38;;;;;;;19.08;3.83;;;;;;;;;;5018120;28;20047;-71
2022/10/07 09:26:11;;;;;;;21.70;4.22;;;;;;;;;;5054259;28;20606;-72
2022/10/07 09:28:37;;;;;;;18.80;3.70;;;;;;;;;;5054111;28;20080;-72
2022/10/07 09:31:04;;;;;;;17.10;3.63;;;;;;;;;;5054207;28;20434;-72
2022/10/07 09:33:30;;;;;;;17.45;3.00;;;;;;;;;;5054127;28;20461;-72
2022/10/07 09:35:57;;;;;;;15.27;3.70;;;;;;;;;;5053951;28;20049;-72
2022/10/07 09:38:28;;;;;;;16.40;3.15;;;;;;;;;;5054460;28;20486;-72
2022/10/07 09:41:16;;;;;;;15.10;3.75;;;;;;;;;;5053925;28;20425;-72
2022/10/07 09:44:00;;;;;;;21.25;3.55;;;;;;;;;;5053694;28;20431;-72
2022/10/07 09:46:40;;;;;;;16.40;3.00;;;;;;;;;;5053887;28;20051;-71
2022/10/07 09:49:06;;;;;;;16.10;3.53;;;;;;;;;;5053120;28;20045;-72
2022/10/07 09:51:34;;;;;;;15.77;3.17;;;;;;;;;;5052884;28;20041;-71
2022/10/07 09:54:02;;;;;;;20.45;3.47;;;;;;;;;;5035104;28;20072;-72
2022/10/07 09:56:39;;;;;;;13.95;2.80;;;;;;;;;;5035161;28;20085;-71
2022/10/07 09:59:26;;;;;;;17.67;3.50;;;;;;;;;;5032608;28;20069;-73
2022/10/07 10:02:03;;;;;;;15.18;3.30;;;;;;;;;;5034115;28;20406;-73
2022/10/07 10:04:36;;;;;;;14.13;2.55;;;;;;;;;;5049577;28;20049;-73
2022/10/07 10:07:16;;;;;;;18.05;3.67;;;;;;;;;;5048571;28;20048;-73
2022/10/07 10:09:48;;;;;;;18.08;3.10;;;;;;;;;;5049571;28;20047;-73
2022/10/07 10:12:15;;;;;;;18.50;3.40;;;;;;;;;;5050949;28;20072;-73
2022/10/07 10:14:41;;;;;;;18.60;3.22;;;;;;;;;;5051716;28;20055;-73
2022/10/07 10:17:19;;;;;;;15.63;3.47;;;;;;;;;;5047238;28;20116;-73
2022/10/07 10:19:45;;;;;;;16.15;3.17;;;;;;;;;;5051365;28;20052;-73
2022/10/07 10:22:23;;;;;;;18.15;2.80;;;;;;;;;;5053107;28;20487;-74
2022/10/07 10:27:38;;;;;;;15.57;3.03;;;;;;;;;;5040266;28;20085;-73
2022/10/07 10:30:05;;;;;;;14.15;2.90;;;;;;;;;;5049331;28;20099;-73
2022/10/07 10:32:37;;;;;;;13.30;2.60;;;;;;;;;;5052561;28;20057;-73
2022/10/07 10:35:06;;;;;;;12.93;2.58;;;;;;;;;;5052062;28;20045;-73
2022/10/07 10:37:32;;;;;;;15.15;2.55;;;;;;;;;;5045051;28;20049;-72
2022/10/07 10:40:07;;;;;;;16.95;3.00;;;;;;;;;;5033191;28;20044;-73
2022/10/07 10:42:33;;;;;;;14.50;2.90;;;;;;;;;;5033459;28;20461;-73
2022/10/07 10:45:01;;;;;;;13.10;2.80;;;;;;;;;;5034183;28;20381;-73
2022/10/07 10:47:34;;;;;;;18.15;3.28;;;;;;;;;;5072495;28;20662;-73
2022/10/07 10:50:20;;;;;;;15.23;2.72;;;;;;;;;;5033124;28;20049;-74
2022/10/07 10:52:52;;;;;;;12.73;3.10;;;;;;;;;;5032958;28;20056;-73
2022/10/07 10:55:33;;;;;;;13.27;3.10;;;;;;;;;;5032632;28;20045;-73
2022/10/07 10:58:14;;;;;;;14.77;2.60;;;;;;;;;;5050828;28;20129;-73
2022/10/07 11:00:49;;;;;;;16.00;3.33;;;;;;;;;;5052413;28;20048;-73
2022/10/07 11:03:24;;;;;;;16.13;3.28;;;;;;;;;;5049026;28;20042;-72
2022/10/07 11:05:52;;;;;;;19.20;3.25;;;;;;;;;;5032751;28;20125;-72
2022/10/07 11:08:22;;;;;;;15.43;2.85;;;;;;;;;;5036629;28;20033;-73
2022/10/07 11:10:52;;;;;;;17.27;2.83;;;;;;;;;;5034526;28;20124;-72
2022/10/07 11:13:47;;;;;;;12.52;2.28;;;;;;;;;;5051827;28;20076;-72
2022/10/07 11:16:29;;;;;;;18.00;2.97;;;;;;;;;;5039141;28;20057;-72
2022/10/07 11:19:15;;;;;;;15.95;2.75;;;;;;;;;;5052320;28;20072;-73
2022/10/07 11:21:54;;;;;;;14.00;2.63;;;;;;;;;;5046967;28;20187;-73
2022/10/07 11:24:59;;;;;;;11.60;2.38;;;;;;;;;;5014575;28;20045;-73
2022/10/07 11:27:31;;;;;;;15.73;2.88;;;;;;;;;;4965454;28;20580;-73
2022/10/07 11:30:00;;;;;;;16.15;3.28;;;;;;;;;;4971539;28;20460;-73
2022/10/07 11:32:30;;;;;;;15.88;2.70;;;;;;;;;;4964256;28;20139;-72
2022/10/07 11:34:58;;;;;;;14.35;2.60;;;;;;;;;;4970768;28;20055;-73
2022/10/07 11:37:37;;;;;;;14.75;2.90;;;;;;;;;;4981189;28;20051;-72
2022/10/07 11:40:04;;;;;;;11.70;2.58;;;;;;;;;;4990638;28;20055;-73
2022/10/07 11:42:33;;;;;;;13.02;2.90;;;;;;;;;;4983764;28;20042;-71
2022/10/07 11:45:01;;;;;;;15.48;2.83;;;;;;;;;;4971004;28;20464;-72
2022/10/07 11:47:35;;;;;;;14.30;2.80;;;;;;;;;;4971010;28;20054;-72
2022/10/07 11:50:08;;;;;;;11.88;2.88;;;;;;;;;;4970833;28;20489;-71
2022/10/07 11:52:39;;;;;;;13.55;2.92;;;;;;;;;;4970814;28;20059;-72
2022/10/07 11:55:26;;;;;;;14.57;2.80;;;;;;;;;;4970647;28;20051;-71
2022/10/07 11:57:54;;;;;;;13.35;2.92;;;;;;;;;;4981618;28;20189;-71
2022/10/07 12:00:28;;;;;;;11.63;2.55;;;;;;;;;;5032113;28;20128;-71
2022/10/07 12:02:54;;;;;;;12.48;2.72;;;;;;;;;;5033438;28;20050;-72
2022/10/07 12:05:33;;;;;;;13.32;2.90;;;;;;;;;;5031043;28;20135;-72
2022/10/07 12:08:17;;;;;;;14.20;2.85;;;;;;;;;;5040934;28;20087;-71
2022/10/07 12:10:43;;;;;;;14.52;3.25;;;;;;;;;;5033278;28;20048;-71
2022/10/07 12:13:09;;;;;;;12.80;2.65;;;;;;;;;;5051553;28;20037;-71
2022/10/07 12:15:41;;;;;;;16.98;2.72;;;;;;;;;;5050297;28;20532;-72
2022/10/07 12:18:07;;;;;;;13.95;2.45;;;;;;;;;;5049852;28;20092;-71
2022/10/07 12:20:36;;;;;;;16.77;2.78;;;;;;;;;;5049111;28;20124;-72
2022/10/07 12:23:18;;;;;;;14.82;2.75;;;;;;;;;;5032331;28;20049;-71
2022/10/07 12:26:02;;;;;;;13.70;3.00;;;;;;;;;;5051130;28;20155;-72
2022/10/07 12:28:28;;;;;;;14.02;2.80;;;;;;;;;;5047823;28;20094;-72
2022/10/07 12:30:56;;;;;;;13.95;2.95;;;;;;;;;;5048470;28;20148;-72
2022/10/07 12:33:34;;;;;;;12.77;2.67;;;;;;;;;;5028399;28;20415;-71
2022/10/07 12:36:20;;;;;;;15.48;3.15;;;;;;;;;;5040711;28;20511;-70
2022/10/07 12:38:55;;;;;;;16.05;2.65;;;;;;;;;;5046354;28;20452;-71
2022/10/07 12:41:28;;;;;;;14.27;2.80;;;;;;;;;;5035442;28;20103;-71
2022/10/07 12:44:13;;;;;;;14.18;2.90;;;;;;;;;;5043321;28;20049;-71
2022/10/07 12:46:49;;;;;;;17.80;2.88;;;;;;;;;;5050925;28;20041;-72
2022/10/07 12:49:18;;;;;;;19.00;3.20;;;;;;;;;;5051397;28;20059;-70
2022/10/07 12:51:45;;;;;;;16.90;2.97;;;;;;;;;;5051228;28;20091;-70
2022/10/07 12:54:17;;;;;;;15.43;2.47;;;;;;;;;;5059609;28;20044;-70
2022/10/07 12:56:43;;;;;;;12.15;2.42;;;;;;;;;;5074876;28;20052;-71
2022/10/07 12:59:46;;;;;;;13.73;2.75;;;;;;;;;;5051381;28;20048;-71
2022/10/07 13:02:13;;;;;;;13.38;2.40;;;;;;;;;;5055246;28;20033;-71
2022/10/07 13:04:58;;;;;;;13.52;2.40;;;;;;;;;;5052243;28;20131;-71
2022/10/07 13:07:39;;;;;;;12.63;2.47;;;;;;;;;;5069831;28;20049;-71
2022/10/07 13:10:24;;;;;;;13.18;2.70;;;;;;;;;;5034870;28;20140;-72
2022/10/07 13:12:55;;;;;;;14.00;2.33;;;;;;;;;;5047825;28;20045;-71
2022/10/07 13:15:21;;;;;;;;;;;;;;;;;;5047232;28;20072;-71
2022/10/07 13:17:53;;;;;;;13.50;2.67;;;;;;;;;;5046678;28;19995;-71
2022/10/07 13:20:19;;;;;;;12.55;2.50;;;;;;;;;;5053841;28;20037;-74
2022/10/07 13:22:46;;;;;;;12.02;2.45;;;;;;;;;;5040475;28;20123;-72
2022/10/07 13:25:13;;;;;;;13.32;2.75;;;;;;;;;;5035737;28;20079;-71
2022/10/07 13:27:40;;;;;;;13.02;2.83;;;;;;;;;;5041612;28;20148;-72
2022/10/07 13:30:07;;;;;;;14.68;2.83;;;;;;;;;;5034123;28;20061;-72
2022/10/07 13:32:34;;;;;;;12.50;2.90;;;;;;;;;;5036303;28;20080;-72
2022/10/07 13:35:21;;;;;;;12.45;3.05;;;;;;;;;;5052864;28;20056;-72
2022/10/07 13:37:47;;;;;;;12.02;2.40;;;;;;;;;;5049488;28;20060;-71
2022/10/07 13:40:20;;;;;;;11.20;2.83;;;;;;;;;;5053448;28;20136;-72
2022/10/07 13:42:52;;;;;;;13.48;2.72;;;;;;;;;;5049610;28;20053;-72
2022/10/07 13:45:18;;;;;;;11.90;2.92;;;;;;;;;;5052485;28;20560;-71
2022/10/07 13:47:48;;;;;;;15.68;3.20;;;;;;;;;;5053090;28;20071;-72
2022/10/07 13:50:17;;;;;;;10.50;2.25;;;;;;;;;;5051475;28;20462;-72
2022/10/07 13:52:45;;;;;;;14.77;4.10;;;;;;;;;;5051693;28;20037;-73
2022/10/07 13:55:27;;;;;;;14.38;3.50;;;;;;;;;;5051439;28;20501;-72
2022/10/07 13:57:56;;;;;;;11.43;2.58;;;;;;;;;;5050886;28;20052;-73
2022/10/07 14:00:22;;;;;;;10.85;2.30;;;;;;;;;;5052076;28;22062;-72
2022/10/07 14:02:49;;;;;;;9.25;2.17;;;;;;;;;;5053707;28;20045;-73
2022/10/07 14:05:22;;;;;;;12.73;2.10;;;;;;;;;;5033051;28;20052;-73
2022/10/07 14:07:56;;;;;;;9.65;2.10;;;;;;;;;;5052420;28;20053;-72
2022/10/07 14:10:24;;;;;;;12.05;2.55;;;;;;;;;;5048681;28;20060;-73
2022/10/07 14:12:55;;;;;;;9.93;2.25;;;;;;;;;;5052096;28;20090;-73
2022/10/07 14:15:31;;;;;;;11.35;2.35;;;;;;;;;;5022291;28;20077;-72
2022/10/07 14:18:09;;;;;;;9.20;1.92;;;;;;;;;;5049379;28;20049;-73
2022/10/07 14:20:39;;;;;;;16.48;2.85;;;;;;;;;;5019874;28;20049;-73
2022/10/07 14:23:07;;;;;;;9.60;2.67;;;;;;;;;;5051411;28;20049;-73
2022/10/07 14:25:52;;;;;;;10.45;2.60;;;;;;;;;;5045971;28;20384;-73
2022/10/07 14:28:18;;;;;;;13.07;2.20;;;;;;;;;;5051719;28;20048;-72
2022/10/07 14:36:34;;;;;;;8.30;2.25;;;;;;;;;;5053641;28;20483;-74
2022/10/07 14:39:20;;;;;;;12.18;2.05;;;;;;;;;;5052675;28;20049;-74
2022/10/07 14:41:47;;;;;;;12.13;2.20;;;;;;;;;;5050258;28;20049;-77
2022/10/07 14:44:13;;;;;;;13.88;2.40;;;;;;;;;;5067760;28;20083;-73
2022/10/07 14:46:39;;;;;;;10.93;2.38;;;;;;;;;;5051463;28;20048;-73
2022/10/07 14:49:08;;;;;;;11.77;2.40;;;;;;;;;;5051351;28;20048;-72
2022/10/07 14:51:34;;;;;;;11.43;2.60;;;;;;;;;;5043435;28;20447;-72
2022/10/07 14:54:02;;;;;;;13.18;2.70;;;;;;;;;;5051548;28;20049;-72
2022/10/07 14:56:30;;;;;;;12.77;2.53;;;;;;;;;;5052023;28;20506;-72
2022/10/07 14:58:56;;;;;;;12.68;2.92;;;;;;;;;;5051966;28;20506;-72
2022/10/07 15:01:23;;;;;;;10.07;2.38;;;;;;;;;;5047633;28;20045;-72